Terminal Aerodrome Forecast
Issued by NWS Midland/Odessa, TX

Home | Current Version | Previous Version | Text Only | Print | Product List | Glossary On
Versions: 1 2 3 4 5 6 7 8 9 10 11 12 13 14 15 16 17 18 19
000
FTUS44 KMAF 011720
TAFMAF
TAF
KMAF 011720Z 0118/0218 15012G19KT P6SM SKC
     FM012000 16011KT P6SM SKC
     FM021200 18008KT P6SM BKN025
     FM021600 18011KT P6SM FEW250=

USA.gov is the U.S. government's official web portal to all federal, state and local government web resources and services.